Time;durP1;ratioP1;P1;durP2;ratioP2;P2;SDS_P1;SDS_P2;PMS_P1;PMS_P2;Temp;Humidity;BMP_temperature;BMP_pressure;BME280_temperature;BME280_humidity;BME280_pressure;Samples;Min_cycle;Max_cycle;Signal;HPM_P1;HPM_P2
2022/03/27 00:01:31;;;;;;;14.07;8.93;;;11.20;43.80;;;;;;7350646;19;21383;-75
2022/03/27 00:04:04;;;;;;;20.83;9.83;;;11.10;44.00;;;;;;7347740;19;20512;-75
2022/03/27 00:06:34;;;;;;;17.50;9.13;;;10.90;44.40;;;;;;7362462;19;20412;-76
2022/03/27 00:09:03;;;;;;;26.40;10.37;;;10.90;44.80;;;;;;7343304;19;21104;-76
2022/03/27 00:11:33;;;;;;;18.67;9.83;;;10.80;45.40;;;;;;7344638;19;20464;-77
2022/03/27 00:14:03;;;;;;;24.33;9.97;;;10.80;45.00;;;;;;7361107;19;20448;-76
2022/03/27 00:16:34;;;;;;;30.40;10.10;;;10.70;44.90;;;;;;7354968;19;20384;-76
2022/03/27 00:19:06;;;;;;;22.63;10.40;;;10.70;45.10;;;;;;7340846;19;21462;-76
2022/03/27 00:21:38;;;;;;;14.37;8.93;;;10.80;45.20;;;;;;7363451;19;20487;-75
2022/03/27 00:24:08;;;;;;;23.90;11.30;;;10.80;45.30;;;;;;7349949;19;21097;-76
2022/03/27 00:26:38;;;;;;;17.30;9.03;;;10.70;45.30;;;;;;7344663;19;20395;-76
2022/03/27 00:29:07;;;;;;;21.50;10.63;;;10.70;45.40;;;;;;7356981;19;20412;-76
2022/03/27 00:31:38;;;;;;;19.43;10.13;;;10.70;45.50;;;;;;7345279;19;20475;-76
2022/03/27 00:34:11;;;;;;;26.37;9.87;;;10.70;45.60;;;;;;7349430;19;20506;-75
2022/03/27 00:36:40;;;;;;;16.87;10.03;;;10.70;45.70;;;;;;7349214;19;20362;-75
2022/03/27 00:39:12;;;;;;;23.40;9.77;;;10.60;45.90;;;;;;7351257;19;20413;-76
2022/03/27 00:41:43;;;;;;;19.17;9.90;;;10.50;45.90;;;;;;7339317;19;20484;-74
2022/03/27 00:44:12;;;;;;;20.27;10.77;;;10.30;46.10;;;;;;7349147;19;20417;-76
2022/03/27 00:46:42;;;;;;;17.37;11.03;;;10.30;46.30;;;;;;7361299;19;20705;-76
2022/03/27 00:49:14;;;;;;;23.53;10.47;;;10.30;46.40;;;;;;7349071;19;20416;-76
2022/03/27 00:51:44;;;;;;;17.50;10.53;;;10.10;46.40;;;;;;7337955;19;20408;-76
2022/03/27 00:54:13;;;;;;;22.67;10.13;;;10.20;46.40;;;;;;7345864;19;20423;-76
2022/03/27 00:56:43;;;;;;;17.77;10.40;;;10.20;46.70;;;;;;7335631;19;20412;-75
2022/03/27 00:59:13;;;;;;;22.30;9.90;;;10.40;46.70;;;;;;7344816;19;21641;-75
2022/03/27 01:01:44;;;;;;;18.03;10.30;;;10.40;46.60;;;;;;7356630;19;20891;-76
2022/03/27 01:04:16;;;;;;;18.33;8.87;;;10.20;46.50;;;;;;7355203;19;20387;-75
2022/03/27 01:06:46;;;;;;;22.00;10.40;;;10.00;46.80;;;;;;7342984;19;20415;-76
2022/03/27 01:12:15;;;;;;;18.83;9.67;;;10.10;47.20;;;;;;7349338;19;20409;-77
2022/03/27 01:14:46;;;;;;;21.90;10.00;;;10.10;47.10;;;;;;7344226;19;21083;-75
2022/03/27 01:17:18;;;;;;;19.63;9.50;;;10.10;47.30;;;;;;7338748;19;20409;-77
2022/03/27 01:19:53;;;;;;;22.80;10.77;;;9.90;48.10;;;;;;7347821;19;20440;-77
2022/03/27 01:22:26;;;;;;;19.38;10.10;;;10.00;47.00;;;;;;7348442;19;20710;-77
2022/03/27 01:24:55;;;;;;;20.35;9.55;;;10.00;47.00;;;;;;7345974;19;20124;-75
2022/03/27 01:27:25;;;;;;;18.38;9.82;;;10.00;47.40;;;;;;7337176;19;20175;-75
2022/03/27 01:29:56;;;;;;;16.73;10.40;;;10.00;47.40;;;;;;7354398;19;20156;-75
2022/03/27 01:32:25;;;;;;;21.85;10.00;;;9.90;48.30;;;;;;7385314;19;20435;-74
2022/03/27 01:34:54;;;;;;;22.43;10.57;;;9.80;48.20;;;;;;7380452;19;20152;-74
2022/03/27 01:37:26;;;;;;;19.23;9.02;;;9.90;48.20;;;;;;7350569;19;20437;-74
2022/03/27 01:39:56;;;;;;;21.70;10.87;;;9.80;48.20;;;;;;7367355;19;20127;-74
2022/03/27 01:42:26;;;;;;;22.67;10.82;;;9.80;48.50;;;;;;7363639;19;21457;-75
2022/03/27 01:44:55;;;;;;;19.58;10.18;;;9.70;48.70;;;;;;7356849;19;20216;-75
2022/03/27 01:47:25;;;;;;;18.10;10.68;;;9.70;48.60;;;;;;7342605;19;20127;-74
2022/03/27 01:49:54;;;;;;;23.02;10.75;;;9.60;48.70;;;;;;7355093;19;21895;-74
2022/03/27 01:52:26;;;;;;;16.63;9.93;;;9.50;49.00;;;;;;7362550;19;20160;-75
2022/03/27 01:54:55;;;;;;;19.50;10.27;;;9.60;49.10;;;;;;7345273;19;20738;-74
2022/03/27 01:57:25;;;;;;;20.13;9.70;;;9.60;49.10;;;;;;7350734;19;20158;-74
2022/03/27 01:59:54;;;;;;;18.15;9.40;;;9.60;49.10;;;;;;7360299;19;20132;-75
2022/03/27 02:02:26;;;;;;;18.33;10.23;;;9.50;49.50;;;;;;7366642;19;20132;-75
2022/03/27 02:04:56;;;;;;;18.63;10.50;;;9.40;49.70;;;;;;7372538;19;20172;-75
2022/03/27 02:07:28;;;;;;;17.55;9.70;;;9.30;49.70;;;;;;7376352;19;20918;-75
2022/03/27 02:09:57;;;;;;;19.58;9.77;;;9.20;49.70;;;;;;7371514;19;20323;-76
2022/03/27 02:12:27;;;;;;;22.27;12.02;;;9.10;49.70;;;;;;7349003;19;20168;-75
2022/03/27 02:14:56;;;;;;;26.02;10.80;;;9.10;49.80;;;;;;7351625;19;20135;-74
2022/03/27 02:17:25;;;;;;;21.30;10.23;;;9.20;49.90;;;;;;7358047;19;20132;-74
2022/03/27 02:19:55;;;;;;;21.40;11.10;;;9.30;49.70;;;;;;7367751;19;20197;-75
2022/03/27 02:22:24;;;;;;;16.17;10.70;;;9.30;50.00;;;;;;7384664;19;20132;-76
2022/03/27 02:24:56;;;;;;;18.90;9.52;;;9.20;49.80;;;;;;7394905;19;20148;-75
2022/03/27 02:27:26;;;;;;;22.95;10.93;;;9.20;49.90;;;;;;7390999;19;20136;-75
2022/03/27 02:29:55;;;;;;;25.83;10.70;;;9.10;49.90;;;;;;7387249;19;20135;-74
2022/03/27 02:32:25;;;;;;;24.70;10.25;;;9.00;49.80;;;;;;7383363;19;20132;-74
2022/03/27 02:34:54;;;;;;;19.25;10.98;;;9.10;49.80;;;;;;7376909;19;20139;-75
2022/03/27 02:37:24;;;;;;;23.00;10.85;;;9.10;50.10;;;;;;7374655;19;20143;-75
2022/03/27 02:39:56;;;;;;;22.65;12.02;;;9.00;50.10;;;;;;7369021;19;20140;-77
2022/03/27 02:42:25;;;;;;;22.20;11.02;;;8.90;50.00;;;;;;7363480;19;20147;-75
2022/03/27 02:44:55;;;;;;;22.75;12.00;;;8.80;50.50;;;;;;7359744;19;20181;-75
2022/03/27 02:47:24;;;;;;;15.75;10.65;;;8.80;50.40;;;;;;7365196;19;20138;-76
2022/03/27 02:49:54;;;;;;;17.38;10.35;;;8.80;50.20;;;;;;7374513;19;20134;-75
2022/03/27 02:52:24;;;;;;;21.88;12.07;;;9.00;50.30;;;;;;7354142;19;20741;-75
2022/03/27 02:54:56;;;;;;;21.70;9.70;;;9.10;50.20;;;;;;7356826;19;20163;-75
2022/03/27 02:57:26;;;;;;;21.50;10.02;;;8.90;50.40;;;;;;7365359;19;20577;-77
2022/03/27 02:59:59;;;;;;;24.08;10.70;;;8.80;50.60;;;;;;7365763;19;20182;-76
2022/03/27 03:02:28;;;;;;;21.88;11.85;;;8.80;50.60;;;;;;7374670;19;20660;-75
2022/03/27 03:04:58;;;;;;;20.08;12.00;;;8.70;50.60;;;;;;7377799;19;20142;-76
2022/03/27 03:07:28;;;;;;;24.98;10.98;;;8.90;50.70;;;;;;7367763;19;20139;-75
2022/03/27 03:10:00;;;;;;;23.75;11.05;;;8.80;50.60;;;;;;7373828;19;20139;-76
2022/03/27 03:12:30;;;;;;;22.77;10.40;;;8.80;50.60;;;;;;7356593;19;20503;-75
2022/03/27 03:15:00;;;;;;;24.85;11.27;;;8.80;50.70;;;;;;7349439;19;20135;-76
2022/03/27 03:17:29;;;;;;;17.07;10.30;;;8.70;50.90;;;;;;7350781;19;20143;-75
2022/03/27 03:19:59;;;;;;;20.60;10.02;;;8.70;51.00;;;;;;7369786;19;20383;-76
2022/03/27 03:22:31;;;;;;;19.25;10.70;;;8.60;51.10;;;;;;7356986;19;20667;-77
2022/03/27 03:25:03;;;;;;;26.63;11.85;;;8.80;51.00;;;;;;7355655;19;20603;-76
2022/03/27 03:27:33;;;;;;;22.95;11.57;;;8.70;51.20;;;;;;7348292;19;20135;-76
2022/03/27 03:30:02;;;;;;;21.30;10.35;;;8.70;51.30;;;;;;7356160;19;20246;-75
2022/03/27 03:32:33;;;;;;;19.77;10.02;;;8.70;51.50;;;;;;7354148;19;20135;-78
2022/03/27 03:35:03;;;;;;;21.77;10.60;;;8.70;51.60;;;;;;7369645;19;20557;-75
2022/03/27 03:37:33;;;;;;;22.20;10.43;;;8.60;51.70;;;;;;7383454;19;20140;-76
2022/03/27 03:40:07;;;;;;;19.00;10.60;;;8.50;51.80;;;;;;7363066;19;20673;-76
2022/03/27 03:42:36;;;;;;;16.88;9.82;;;8.40;52.00;;;;;;7354217;19;20139;-77
2022/03/27 03:45:07;;;;;;;18.73;9.93;;;8.30;51.90;;;;;;7348043;19;20136;-77
2022/03/27 03:47:37;;;;;;;18.27;10.95;;;8.20;52.10;;;;;;7354566;19;20136;-75
2022/03/27 03:50:09;;;;;;;17.70;9.82;;;8.30;52.30;;;;;;7369399;19;20151;-71
2022/03/27 03:52:38;;;;;;;19.15;9.98;;;8.30;52.20;;;;;;7367277;19;20163;-70
2022/03/27 03:55:11;;;;;;;19.52;11.13;;;8.30;52.20;;;;;;7341621;19;20737;-71
2022/03/27 03:57:41;;;;;;;17.58;10.07;;;8.10;52.30;;;;;;7342222;19;20155;-71
2022/03/27 04:00:11;;;;;;;19.42;10.60;;;8.10;52.50;;;;;;7337947;19;20538;-70
2022/03/27 04:02:43;;;;;;;19.48;10.35;;;8.30;52.50;;;;;;7348000;19;20140;-70
2022/03/27 04:05:13;;;;;;;20.05;10.27;;;8.30;52.50;;;;;;7346432;19;20123;-70
2022/03/27 04:07:44;;;;;;;20.33;10.60;;;8.30;52.50;;;;;;7363048;19;20155;-70
2022/03/27 04:10:16;;;;;;;24.77;9.85;;;8.40;52.70;;;;;;7365673;19;20611;-70
2022/03/27 04:12:46;;;;;;;18.30;9.70;;;8.40;52.50;;;;;;7353193;19;20620;-70
2022/03/27 04:15:15;;;;;;;21.08;10.60;;;8.50;52.40;;;;;;7346801;19;20160;-70
2022/03/27 04:17:46;;;;;;;18.83;10.18;;;8.40;52.40;;;;;;7342859;19;20135;-71
2022/03/27 04:20:16;;;;;;;18.80;10.02;;;8.40;52.60;;;;;;7362658;19;20136;-76
2022/03/27 04:22:46;;;;;;;20.27;8.90;;;8.20;52.50;;;;;;7355765;19;20157;-75
2022/03/27 04:25:18;;;;;;;20.45;10.65;;;8.10;52.80;;;;;;7369430;19;20143;-76
2022/03/27 04:27:48;;;;;;;19.70;10.75;;;8.20;53.00;;;;;;7361952;19;20128;-77
2022/03/27 04:30:17;;;;;;;17.50;9.85;;;8.10;53.00;;;;;;7368606;19;20139;-75
2022/03/27 04:32:50;;;;;;;20.10;10.15;;;8.10;53.20;;;;;;7377921;19;20168;-77
2022/03/27 04:35:20;;;;;;;17.17;11.52;;;8.00;53.20;;;;;;7366190;19;20132;-76
2022/03/27 04:37:49;;;;;;;15.55;8.73;;;8.10;53.20;;;;;;7353546;19;21478;-76
2022/03/27 04:40:22;;;;;;;19.60;9.70;;;8.00;53.70;;;;;;7352044;19;20156;-75
2022/03/27 04:42:51;;;;;;;20.90;11.00;;;7.90;53.90;;;;;;7347583;19;20136;-75
2022/03/27 04:45:21;;;;;;;17.35;8.52;;;7.90;54.00;;;;;;7342920;19;20136;-75
2022/03/27 04:47:50;;;;;;;21.83;9.80;;;8.00;53.90;;;;;;7342509;19;20245;-77
2022/03/27 04:50:20;;;;;;;17.42;9.63;;;8.00;53.80;;;;;;7347707;19;20167;-76
2022/03/27 04:52:49;;;;;;;23.40;10.48;;;7.90;53.60;;;;;;7362864;19;20253;-76
2022/03/27 04:55:21;;;;;;;16.80;9.90;;;7.90;53.80;;;;;;7375553;19;20264;-76
2022/03/27 04:57:51;;;;;;;22.05;10.57;;;8.00;53.70;;;;;;7362696;19;20159;-77
2022/03/27 05:00:21;;;;;;;21.85;10.73;;;7.90;53.70;;;;;;7350013;19;20139;-77
2022/03/27 05:02:50;;;;;;;19.83;10.63;;;7.80;53.90;;;;;;7357763;19;20160;-77
2022/03/27 05:05:20;;;;;;;24.20;11.30;;;7.60;54.00;;;;;;7357220;19;21040;-75
2022/03/27 05:07:49;;;;;;;22.95;12.27;;;7.60;54.10;;;;;;7364889;19;20143;-75
2022/03/27 05:10:22;;;;;;;22.30;10.38;;;7.70;54.10;;;;;;7384823;19;20627;-73
2022/03/27 05:12:51;;;;;;;17.80;10.45;;;7.80;54.40;;;;;;7387390;19;20162;-73
2022/03/27 05:15:23;;;;;;;19.83;10.25;;;7.80;54.40;;;;;;7390790;19;20142;-74
2022/03/27 05:17:56;;;;;;;20.10;11.45;;;7.60;54.40;;;;;;7368198;19;20170;-74
2022/03/27 05:20:26;;;;;;;20.98;10.27;;;7.70;54.50;;;;;;7368890;19;22145;-76
2022/03/27 05:22:55;;;;;;;20.70;9.52;;;7.70;54.50;;;;;;7349829;19;20136;-75
2022/03/27 05:25:27;;;;;;;15.27;9.07;;;7.70;54.70;;;;;;7366266;19;20135;-74
2022/03/27 05:28:00;;;;;;;20.13;9.93;;;7.70;54.70;;;;;;7363034;19;20850;-75
2022/03/27 05:30:31;;;;;;;22.30;11.43;;;7.50;54.70;;;;;;7366747;19;20138;-75
2022/03/27 05:33:03;;;;;;;19.25;10.68;;;7.60;54.80;;;;;;7370207;19;20139;-74
2022/03/27 05:35:32;;;;;;;19.08;10.48;;;7.40;54.90;;;;;;7383171;19;20191;-75
2022/03/27 05:38:02;;;;;;;17.40;10.35;;;7.50;55.10;;;;;;7387139;19;20143;-75
2022/03/27 05:40:34;;;;;;;21.50;10.85;;;7.50;55.00;;;;;;7370772;19;20782;-74
2022/03/27 05:43:05;;;;;;;22.35;11.10;;;7.60;54.90;;;;;;7341445;19;20168;-76
2022/03/27 05:45:35;;;;;;;21.20;10.85;;;7.60;54.90;;;;;;7359484;19;20629;-76
2022/03/27 05:48:05;;;;;;;19.08;9.90;;;7.50;55.10;;;;;;7368080;19;20131;-75
2022/03/27 05:50:35;;;;;;;18.75;10.23;;;7.50;55.00;;;;;;7356543;19;20144;-75
2022/03/27 05:53:06;;;;;;;22.05;11.90;;;7.50;55.00;;;;;;7354819;19;20225;-75
2022/03/27 05:55:39;;;;;;;18.90;10.82;;;7.40;55.10;;;;;;7345279;19;20491;-75
2022/03/27 05:58:08;;;;;;;19.73;10.75;;;7.50;55.30;;;;;;7347750;19;20147;-70
2022/03/27 06:00:38;;;;;;;30.85;11.63;;;7.40;55.40;;;;;;7344563;19;20167;-69
2022/03/27 06:03:07;;;;;;;24.95;11.85;;;7.40;55.70;;;;;;7370588;19;20164;-70
2022/03/27 06:05:37;;;;;;;18.73;10.70;;;7.20;56.30;;;;;;7352608;19;20159;-70
2022/03/27 06:08:07;;;;;;;20.05;11.38;;;7.00;56.70;;;;;;7357026;19;20147;-70
2022/03/27 06:10:41;;;;;;;19.80;11.18;;;7.00;56.70;;;;;;7350488;19;20140;-71
2022/03/27 06:13:11;;;;;;;28.00;11.98;;;7.00;56.50;;;;;;7360884;19;20135;-70
2022/03/27 06:15:40;;;;;;;27.20;12.10;;;7.10;56.80;;;;;;7375742;19;20230;-70
2022/03/27 06:18:12;;;;;;;23.52;11.70;;;7.10;56.90;;;;;;7361410;19;20170;-70
2022/03/27 06:20:43;;;;;;;20.42;10.18;;;7.10;56.90;;;;;;7345729;19;20164;-71
2022/03/27 06:23:13;;;;;;;22.08;11.75;;;7.20;56.90;;;;;;7355338;19;20233;-70
2022/03/27 06:25:45;;;;;;;25.77;13.40;;;7.20;56.90;;;;;;7348875;19;20215;-70
2022/03/27 06:28:16;;;;;;;21.98;12.05;;;7.10;57.00;;;;;;7354936;19;20147;-70
2022/03/27 06:30:48;;;;;;;25.05;13.07;;;7.00;57.30;;;;;;7357155;19;20143;-70
2022/03/27 06:33:18;;;;;;;23.83;13.20;;;7.10;57.50;;;;;;7350895;19;20211;-70
2022/03/27 06:35:48;;;;;;;26.92;14.45;;;7.10;57.40;;;;;;7367951;19;20231;-70
2022/03/27 06:38:17;;;;;;;28.02;12.45;;;7.20;57.50;;;;;;7363089;19;20221;-69
2022/03/27 06:40:49;;;;;;;27.50;13.70;;;7.30;57.40;;;;;;7347059;19;20139;-74
2022/03/27 06:43:19;;;;;;;27.30;14.13;;;7.40;56.70;;;;;;7376026;19;20143;-72
2022/03/27 06:45:48;;;;;;;24.88;11.68;;;7.40;56.70;;;;;;7367567;19;20467;-73
2022/03/27 06:48:18;;;;;;;23.02;11.68;;;7.60;56.00;;;;;;7365829;19;20504;-75
2022/03/27 06:50:49;;;;;;;24.33;13.48;;;7.80;55.70;;;;;;7374305;19;20584;-75
2022/03/27 06:53:20;;;;;;;22.60;12.95;;;8.00;55.60;;;;;;7378955;19;20135;-75
2022/03/27 06:55:53;;;;;;;23.60;13.18;;;8.10;55.00;;;;;;7376326;19;20566;-74
2022/03/27 06:58:22;;;;;;;21.58;12.10;;;8.40;54.90;;;;;;7375349;19;21004;-75
2022/03/27 07:03:34;;;;;;;20.90;12.95;;;8.80;54.00;;;;;;7356813;19;20615;-69
2022/03/27 07:06:03;;;;;;;22.67;12.87;;;9.10;53.50;;;;;;7358737;19;20561;-70
2022/03/27 07:08:32;;;;;;;24.07;13.00;;;9.50;52.80;;;;;;7347061;19;20487;-71
2022/03/27 07:11:04;;;;;;;23.60;13.38;;;9.80;52.00;;;;;;7345824;19;20373;-71
2022/03/27 07:13:34;;;;;;;26.20;12.20;;;10.10;50.50;;;;;;7351697;19;24144;-71
2022/03/27 07:16:04;;;;;;;27.00;12.90;;;10.50;50.20;;;;;;7356166;19;20425;-71
2022/03/27 07:18:36;;;;;;;28.10;12.60;;;10.70;49.20;;;;;;7342026;19;20937;-71
2022/03/27 07:21:05;;;;;;;26.27;12.10;;;11.00;48.50;;;;;;7352957;19;20509;-70
2022/03/27 07:23:38;;;;;;;21.13;12.23;;;11.30;47.80;;;;;;7362486;19;20411;-71
2022/03/27 07:26:10;;;;;;;25.43;12.97;;;11.50;47.50;;;;;;7356372;19;20792;-71
2022/03/27 07:28:39;;;;;;;21.13;12.20;;;11.70;47.40;;;;;;7372615;19;20415;-71
2022/03/27 07:31:11;;;;;;;24.30;12.63;;;11.90;45.60;;;;;;7355224;19;20429;-72
2022/03/27 07:33:41;;;;;;;21.20;13.63;;;11.90;45.60;;;;;;7375006;19;20404;-74
2022/03/27 07:36:11;;;;;;;21.80;13.17;;;12.00;44.80;;;;;;7349084;19;21142;-72
2022/03/27 07:38:40;;;;;;;28.17;13.10;;;12.30;44.90;;;;;;7357438;19;20408;-71
2022/03/27 07:41:15;;;;;;;21.70;12.93;;;12.50;44.10;;;;;;7367014;19;21024;-75
2022/03/27 07:43:44;;;;;;;19.80;12.33;;;12.80;43.50;;;;;;7359255;19;21496;-78
2022/03/27 07:46:16;;;;;;;24.80;13.07;;;13.00;43.30;;;;;;7344539;19;20415;-79
2022/03/27 07:48:45;;;;;;;21.30;13.43;;;13.10;43.30;;;;;;7371413;19;20416;-82
2022/03/27 07:51:17;;;;;;;25.17;13.67;;;13.40;43.00;;;;;;7361813;19;21069;-88
2022/03/27 07:53:51;;;;;;;25.73;14.87;;;13.50;42.40;;;;;;7366640;19;20401;-81
2022/03/27 07:56:24;;;;;;;20.27;14.50;;;13.60;42.60;;;;;;7367241;19;20416;-77
2022/03/27 07:58:55;;;;;;;18.53;13.13;;;13.80;42.10;;;;;;7352663;19;20416;-76
2022/03/27 08:01:27;;;;;;;25.07;14.40;;;14.00;41.30;;;;;;7345710;19;20414;-77
2022/03/27 08:03:58;;;;;;;21.10;13.57;;;13.90;40.80;;;;;;7357041;19;20924;-74
2022/03/27 08:06:36;;;;;;;22.80;14.10;;;13.80;40.60;;;;;;7369085;19;20711;-79
2022/03/27 08:09:08;;;;;;;22.60;14.53;;;13.70;40.80;;;;;;7354175;19;20431;-80
2022/03/27 08:11:43;;;;;;;23.40;14.67;;;13.50;41.10;;;;;;7365755;19;20961;-86
2022/03/27 08:14:13;;;;;;;27.03;14.93;;;13.50;41.40;;;;;;7345388;19;20420;-88
2022/03/27 08:16:45;;;;;;;25.10;15.93;;;13.40;41.50;;;;;;7363508;19;20420;-79
2022/03/27 08:19:14;;;;;;;22.57;14.20;;;13.30;41.60;;;;;;7362343;19;20483;-84
2022/03/27 08:21:44;;;;;;;25.10;14.50;;;13.30;41.60;;;;;;7376876;19;20437;-79
2022/03/27 08:24:13;;;;;;;27.20;14.20;;;13.30;41.50;;;;;;7374543;19;21209;-86
2022/03/27 08:29:29;;;;;;;24.23;14.60;;;13.60;41.80;;;;;;7388406;19;20400;-81
2022/03/27 08:32:03;;;;;;;25.63;14.13;;;14.10;41.20;;;;;;7394375;19;20911;-84
2022/03/27 08:34:35;;;;;;;21.17;14.90;;;14.90;40.40;;;;;;7389909;19;20424;-83
2022/03/27 08:37:12;;;;;;;23.97;14.73;;;15.60;39.00;;;;;;7369352;19;20424;-84
2022/03/27 08:39:44;;;;;;;21.60;14.70;;;16.20;37.90;;;;;;7365199;19;20408;-86
2022/03/27 08:42:20;;;;;;;21.73;14.40;;;16.70;36.70;;;;;;7378982;19;21993;-88
2022/03/27 08:44:50;;;;;;;23.77;15.80;;;17.30;36.20;;;;;;7382009;19;20416;-81
2022/03/27 08:47:25;;;;;;;24.30;13.37;;;17.90;35.40;;;;;;7369953;19;20900;-86
2022/03/27 08:50:04;;;;;;;18.67;15.30;;;18.50;34.50;;;;;;7366082;19;21142;-86
2022/03/27 08:52:51;;;;;;;23.00;17.17;;;19.10;33.70;;;;;;7371315;19;21177;-81
2022/03/27 08:55:23;;;;;;;19.80;14.20;;;19.70;33.10;;;;;;7356052;19;20432;-85
2022/03/27 08:58:00;;;;;;;22.57;14.93;;;20.30;32.40;;;;;;7388151;19;20427;-83
2022/03/27 09:00:33;;;;;;;19.37;15.23;;;20.90;31.10;;;;;;7407471;19;20444;-85
2022/03/27 09:03:05;;;;;;;23.60;14.70;;;21.50;30.30;;;;;;7399831;19;20395;-84
2022/03/27 09:05:38;;;;;;;18.97;13.70;;;22.10;29.70;;;;;;7407243;19;20392;-81
2022/03/27 09:08:12;;;;;;;16.27;12.67;;;22.80;29.00;;;;;;7410509;19;20409;-83
2022/03/27 09:10:43;;;;;;;16.80;13.00;;;23.30;28.80;;;;;;7415091;19;20400;-84
2022/03/27 09:13:17;;;;;;;13.97;12.40;;;23.50;28.10;;;;;;7399811;19;20419;-84
2022/03/27 09:16:00;;;;;;;21.27;12.70;;;24.10;27.70;;;;;;7407940;19;20407;-80
2022/03/27 09:18:42;;;;;;;19.53;13.60;;;24.40;27.20;;;;;;7412553;19;20404;-80
2022/03/27 09:21:12;;;;;;;16.73;13.13;;;24.80;26.90;;;;;;7424766;19;20380;-84
2022/03/27 09:23:41;;;;;;;14.43;11.80;;;25.60;26.40;;;;;;7421399;19;20417;-80
2022/03/27 09:26:16;;;;;;;18.47;14.60;;;25.80;26.00;;;;;;7426941;19;20389;-83
2022/03/27 09:28:52;;;;;;;15.47;13.03;;;26.90;25.20;;;;;;7426211;19;20393;-80
2022/03/27 09:31:28;;;;;;;14.63;13.07;;;27.50;24.10;;;;;;7394942;19;20451;-79
2022/03/27 09:34:00;;;;;;;16.47;13.00;;;28.20;23.50;;;;;;7391200;19;20408;-77
2022/03/27 09:36:33;;;;;;;20.43;13.10;;;28.60;22.90;;;;;;7386208;19;20417;-80
2022/03/27 09:39:12;;;;;;;18.10;14.17;;;29.10;22.40;;;;;;7388821;19;20368;-81
2022/03/27 09:41:44;;;;;;;15.97;12.83;;;29.60;21.90;;;;;;7375478;19;21278;-81
2022/03/27 09:44:18;;;;;;;14.50;12.73;;;30.30;21.60;;;;;;7382041;19;20878;-80
2022/03/27 09:47:00;;;;;;;16.53;12.07;;;30.60;21.20;;;;;;7380349;19;20380;-81
2022/03/27 09:49:46;;;;;;;18.83;13.07;;;31.20;20.30;;;;;;7372655;19;20420;-81
2022/03/27 09:52:17;;;;;;;16.80;12.57;;;31.70;20.10;;;;;;7368893;19;20401;-80
2022/03/27 09:54:56;;;;;;;15.23;12.03;;;32.20;19.90;;;;;;7373710;19;20419;-79
2022/03/27 09:57:28;;;;;;;16.57;12.90;;;32.70;19.20;;;;;;7365558;19;20745;-79
2022/03/27 10:00:11;;;;;;;12.63;11.33;;;32.70;18.80;;;;;;7370907;19;20396;-79
2022/03/27 10:02:42;;;;;;;17.47;11.13;;;32.90;18.80;;;;;;7371972;19;20392;-78
2022/03/27 10:05:13;;;;;;;16.03;12.03;;;33.40;18.50;;;;;;7371649;19;20431;-79
2022/03/27 10:07:47;;;;;;;16.90;13.00;;;33.70;18.40;;;;;;7369978;19;20433;-82
2022/03/27 10:10:23;;;;;;;16.97;12.10;;;34.00;17.90;;;;;;7377932;19;20396;-81
2022/03/27 10:12:54;;;;;;;17.27;12.90;;;34.40;17.60;;;;;;7371451;19;20408;-82
2022/03/27 10:15:28;;;;;;;16.03;11.10;;;35.00;17.30;;;;;;7379912;19;20429;-84
2022/03/27 10:18:00;;;;;;;16.07;12.50;;;34.90;17.50;;;;;;7383077;19;21360;-84
2022/03/27 10:20:32;;;;;;;17.27;12.90;;;35.10;17.20;;;;;;7370626;19;20413;-83
2022/03/27 10:23:07;;;;;;;15.00;12.43;;;35.60;16.80;;;;;;7378095;19;20420;-83
2022/03/27 10:25:43;;;;;;;20.53;18.40;;;36.00;16.70;;;;;;7370982;19;20927;-82
2022/03/27 10:28:14;;;;;;;13.50;10.80;;;35.80;16.50;;;;;;7378897;19;20730;-81
2022/03/27 10:30:51;;;;;;;13.47;11.20;;;36.80;16.20;;;;;;7375524;19;20405;-82
2022/03/27 10:33:21;;;;;;;17.10;13.60;;;37.20;15.80;;;;;;7369922;19;20404;-79
2022/03/27 10:36:00;;;;;;;17.30;12.40;;;36.50;15.70;;;;;;7377523;19;20401;-83
2022/03/27 10:38:57;;;;;;;14.80;12.47;;;37.70;15.70;;;;;;7397946;19;21108;-83
2022/03/27 10:41:36;;;;;;;15.00;11.63;;;38.50;15.00;;;;;;7398763;19;20491;-82
2022/03/27 10:44:13;;;;;;;16.03;12.90;;;39.50;14.50;;;;;;7391538;19;20408;-82
2022/03/27 10:46:47;;;;;;;14.50;12.80;;;40.00;14.30;;;;;;7390225;19;20416;-84
2022/03/27 10:49:20;;;;;;;15.93;14.17;;;39.80;14.50;;;;;;7385686;19;20404;-82
2022/03/27 10:51:52;;;;;;;18.63;12.70;;;39.20;14.60;;;;;;7369087;19;20797;-83
2022/03/27 10:54:22;;;;;;;18.80;12.80;;;39.80;14.10;;;;;;7363469;19;20415;-83
2022/03/27 10:56:56;;;;;;;24.70;13.83;;;39.20;14.40;;;;;;7367366;19;20434;-82
2022/03/27 10:59:28;;;;;;;15.73;12.30;;;39.80;14.40;;;;;;7369273;19;20445;-81
2022/03/27 11:02:03;;;;;;;14.10;12.33;;;38.80;14.60;;;;;;7362764;19;20409;-76
2022/03/27 11:04:41;;;;;;;16.53;12.73;;;38.20;14.80;;;;;;7354837;19;20411;-75
2022/03/27 11:07:24;;;;;;;16.03;12.37;;;39.60;14.40;;;;;;7361237;19;21122;-75
2022/03/27 11:09:54;;;;;;;15.07;11.40;;;39.60;14.40;;;;;;7352514;19;20416;-75
2022/03/27 11:12:31;;;;;;;14.93;11.20;;;38.40;14.80;;;;;;7372953;19;20417;-73
2022/03/27 11:15:02;;;;;;;14.23;11.40;;;40.50;14.10;;;;;;7366255;19;20420;-76
2022/03/27 11:17:44;;;;;;;13.17;11.43;;;41.40;13.30;;;;;;7348928;19;20416;-74
2022/03/27 11:20:56;;;;;;;17.37;11.07;;;41.90;13.00;;;;;;7363208;19;20404;-75
2022/03/27 11:23:28;;;;;;;15.07;11.37;;;42.40;12.90;;;;;;7369228;19;20411;-78
2022/03/27 11:26:03;;;;;;;18.13;12.40;;;43.20;12.70;;;;;;7359037;19;20416;-78
2022/03/27 11:28:48;;;;;;;13.60;10.70;;;41.90;12.90;;;;;;7367720;19;20393;-77
2022/03/27 11:31:30;;;;;;;18.80;11.70;;;41.80;13.30;;;;;;7358426;19;20749;-81
2022/03/27 11:34:20;;;;;;;15.30;11.67;;;42.30;13.10;;;;;;7347342;19;20408;-87
2022/03/27 11:37:15;;;;;;;16.57;10.77;;;42.30;12.90;;;;;;7361656;19;21533;-78
2022/03/27 11:39:44;;;;;;;12.73;11.00;;;42.60;12.70;;;;;;7358479;19;20428;-90
2022/03/27 11:42:28;;;;;;;13.83;10.73;;;43.50;12.30;;;;;;7370919;19;20380;-82
2022/03/27 11:45:21;;;;;;;14.70;10.80;;;44.20;12.00;;;;;;7345862;19;20406;-81
2022/03/27 11:47:52;;;;;;;10.60;9.50;;;44.10;11.90;;;;;;7405499;19;20403;-84
2022/03/27 11:50:31;;;;;;;13.70;9.93;;;43.90;11.90;;;;;;7394148;19;20388;-81
2022/03/27 11:53:02;;;;;;;16.60;10.57;;;44.10;11.90;;;;;;7358121;19;20919;-81
2022/03/27 11:55:33;;;;;;;12.67;10.70;;;44.20;11.60;;;;;;7371073;19;20540;-82
2022/03/27 11:58:07;;;;;;;11.37;9.60;;;43.60;11.60;;;;;;7398193;19;20407;-81
2022/03/27 12:00:41;;;;;;;12.50;9.83;;;43.30;11.60;;;;;;7387527;19;20396;-79
2022/03/27 12:03:20;;;;;;;11.70;9.37;;;43.80;11.40;;;;;;7424245;19;20396;-82
2022/03/27 12:05:53;;;;;;;12.67;10.03;;;44.70;11.30;;;;;;7399066;19;20457;-76
2022/03/27 12:08:34;;;;;;;12.98;10.20;;;44.70;11.10;;;;;;7400615;19;20375;-74
2022/03/27 12:11:08;;;;;;;10.70;8.90;;;45.00;11.10;;;;;;7396683;19;20174;-77
2022/03/27 12:13:41;;;;;;;12.30;9.00;;;45.30;10.80;;;;;;7426277;19;20444;-76
2022/03/27 12:16:20;;;;;;;10.97;9.00;;;44.90;10.90;;;;;;7410856;19;20392;-73
2022/03/27 12:18:53;;;;;;;12.23;9.80;;;44.70;10.70;;;;;;7385735;19;20380;-78
2022/03/27 12:21:25;;;;;;;11.90;9.03;;;43.70;11.00;;;;;;7392218;19;20389;-77
2022/03/27 12:24:02;;;;;;;11.23;8.90;;;44.30;11.00;;;;;;7378692;19;20395;-79
2022/03/27 12:32:13;;;;;;;11.23;8.50;;;44.40;10.60;;;;;;7374244;19;21120;-76
2022/03/27 12:34:44;;;;;;;9.63;8.33;;;44.70;10.80;;;;;;7370988;19;21364;-76
2022/03/27 12:37:18;;;;;;;11.80;9.17;;;44.40;10.60;;;;;;7376969;19;20856;-76
2022/03/27 12:40:06;;;;;;;12.50;9.55;;;44.30;10.90;;;;;;7373180;19;20392;-75
2022/03/27 12:42:39;;;;;;;16.70;8.97;;;44.00;10.90;;;;;;7362225;19;20631;-77
2022/03/27 12:45:11;;;;;;;10.10;7.90;;;44.40;10.90;;;;;;7380247;19;20481;-76
2022/03/27 12:47:44;;;;;;;11.23;7.73;;;44.50;10.80;;;;;;7379816;19;21052;-79
2022/03/27 12:50:15;;;;;;;10.67;8.30;;;44.10;10.90;;;;;;7378297;19;20442;-79
2022/03/27 12:52:55;;;;;;;12.37;8.63;;;44.40;11.00;;;;;;7379317;19;21303;-78
2022/03/27 12:55:26;;;;;;;10.90;8.20;;;44.40;10.70;;;;;;7379892;19;20437;-79
2022/03/27 12:57:58;;;;;;;10.73;8.70;;;43.90;10.80;;;;;;7377757;19;20435;-79
2022/03/27 13:00:30;;;;;;;14.17;9.03;;;43.60;10.70;;;;;;7371189;19;22939;-76
2022/03/27 13:03:17;;;;;;;12.40;8.97;;;42.80;11.10;;;;;;7364654;19;20412;-75
2022/03/27 13:05:49;;;;;;;11.47;8.50;;;42.60;11.40;;;;;;7364961;19;20429;-77
2022/03/27 13:08:30;;;;;;;10.07;8.43;;;42.70;11.40;;;;;;7356696;19;20422;-80
2022/03/27 13:11:00;;;;;;;10.13;8.17;;;43.30;11.00;;;;;;7374334;19;20419;-80
2022/03/27 13:13:37;;;;;;;10.60;8.10;;;42.80;10.80;;;;;;7378691;19;20412;-76